createdAt,value
2018-09-03T00:00:42.016Z,9.63
2018-09-03T00:03:10.386Z,10.00
2018-09-03T00:05:38.700Z,8.80
2018-09-03T00:08:07.173Z,9.63
2018-09-03T00:10:35.486Z,9.10
2018-09-03T00:13:03.797Z,9.60
2018-09-03T00:15:32.123Z,9.73
2018-09-03T00:18:00.451Z,9.50
2018-09-03T00:20:28.925Z,10.13
2018-09-03T00:22:57.276Z,8.97
2018-09-03T00:25:25.586Z,9.87
2018-09-03T00:27:53.929Z,9.07
2018-09-03T00:30:22.278Z,9.23
2018-09-03T00:32:55.715Z,10.17
2018-09-03T00:35:29.324Z,9.63
2018-09-03T00:39:00.619Z,9.97
2018-09-03T00:41:34.206Z,9.93
2018-09-03T00:44:07.851Z,9.87
2018-09-03T00:46:41.455Z,10.13
2018-09-03T00:49:09.774Z,10.27
2018-09-03T00:51:38.093Z,9.83
2018-09-03T00:54:06.442Z,10.27
2018-09-03T00:56:34.749Z,10.37
2018-09-03T00:59:03.066Z,9.57
2018-09-03T01:01:31.365Z,9.40
2018-09-03T01:03:59.679Z,9.33
2018-09-03T01:06:27.990Z,9.83
2018-09-03T01:08:56.318Z,9.90
2018-09-03T01:11:25.593Z,9.80
2018-09-03T01:13:54.781Z,10.23
2018-09-03T01:16:23.143Z,10.23
2018-09-03T01:18:54.892Z,10.10
2018-09-03T01:21:23.678Z,10.23
2018-09-03T01:23:52.319Z,9.90
2018-09-03T01:26:20.678Z,9.60
2018-09-03T01:28:48.973Z,10.10
2018-09-03T01:31:20.378Z,10.00
2018-09-03T01:33:53.143Z,9.63
2018-09-03T01:36:21.830Z,10.43
2018-09-03T01:38:50.165Z,10.17
2018-09-03T01:41:19.203Z,10.30
2018-09-03T01:43:48.010Z,10.67
2018-09-03T01:46:16.594Z,10.70
2018-09-03T01:48:44.999Z,10.70
2018-09-03T01:51:13.355Z,10.77
2018-09-03T01:53:41.654Z,10.77
2018-09-03T01:56:09.963Z,10.40
2018-09-03T01:58:38.283Z,10.43
2018-09-03T02:01:06.837Z,10.03
2018-09-03T02:03:35.469Z,10.17
2018-09-03T02:06:03.955Z,10.17
2018-09-03T02:08:32.500Z,10.87
2018-09-03T02:11:00.938Z,10.13
2018-09-03T02:13:30.413Z,10.37
2018-09-03T02:15:58.910Z,10.90
2018-09-03T02:18:27.509Z,10.93
2018-09-03T02:20:56.224Z,10.80
2018-09-03T02:23:24.785Z,10.97
2018-09-03T02:25:53.424Z,10.87
2018-09-03T02:28:21.944Z,8.70
2018-09-03T02:30:50.381Z,9.60
2018-09-03T02:33:18.759Z,9.57
2018-09-03T02:35:47.210Z,9.17
2018-09-03T02:38:15.567Z,9.00
2018-09-03T02:40:43.960Z,8.40
2018-09-03T02:43:12.321Z,9.50
2018-09-03T02:45:40.726Z,9.00
2018-09-03T02:48:09.135Z,8.77
2018-09-03T02:50:37.676Z,9.70
2018-09-03T02:53:06.106Z,9.57
2018-09-03T02:55:34.499Z,9.83
2018-09-03T02:58:02.850Z,10.40
2018-09-03T03:00:31.243Z,9.70
2018-09-03T03:02:59.741Z,10.10
2018-09-03T03:05:29.144Z,9.87
2018-09-03T03:07:57.902Z,10.30
2018-09-03T03:10:26.397Z,9.53
2018-09-03T03:12:54.724Z,10.57
2018-09-03T03:15:23.140Z,10.03
2018-09-03T03:17:51.515Z,10.90
2018-09-03T03:20:19.928Z,10.13
2018-09-03T03:22:48.349Z,10.03
2018-09-03T03:25:16.743Z,10.87
2018-09-03T03:27:45.115Z,10.53
2018-09-03T03:30:13.517Z,10.50
2018-09-03T03:32:41.943Z,10.57
2018-09-03T03:35:11.684Z,11.27
2018-09-03T03:37:44.191Z,10.23
2018-09-03T03:40:12.665Z,10.93
2018-09-03T03:42:41.024Z,11.10
2018-09-03T03:45:09.518Z,11.53
2018-09-03T03:47:37.975Z,11.00
2018-09-03T03:50:06.488Z,11.43
2018-09-03T03:52:34.862Z,10.87
2018-09-03T03:55:03.643Z,11.40
2018-09-03T03:57:32.014Z,10.90
2018-09-03T04:00:00.495Z,11.57
2018-09-03T04:02:28.969Z,12.00
2018-09-03T04:04:57.369Z,11.73
2018-09-03T04:07:25.819Z,11.40
2018-09-03T04:09:54.219Z,11.97
2018-09-03T04:12:22.595Z,11.43
2018-09-03T04:14:51.005Z,10.87
2018-09-03T04:17:19.402Z,11.43
2018-09-03T04:19:51.806Z,11.10
2018-09-03T04:22:20.172Z,12.00
2018-09-03T04:24:48.523Z,12.20
2018-09-03T04:27:16.941Z,11.53
2018-09-03T04:29:45.318Z,12.23
2018-09-03T04:32:13.749Z,12.63
2018-09-03T04:34:42.130Z,12.33
2018-09-03T04:37:10.522Z,13.93
2018-09-03T04:39:38.912Z,13.00
2018-09-03T04:42:07.313Z,12.77
2018-09-03T04:44:35.672Z,13.23
2018-09-03T04:47:04.132Z,12.73
2018-09-03T04:49:32.504Z,12.60
2018-09-03T04:52:00.937Z,13.40
2018-09-03T04:54:29.434Z,13.53
2018-09-03T04:56:57.825Z,13.00
2018-09-03T04:59:26.205Z,12.70
2018-09-03T05:01:54.593Z,14.60
2018-09-03T05:04:22.968Z,13.70
2018-09-03T05:06:51.447Z,13.83
2018-09-03T05:09:19.947Z,13.90
2018-09-03T05:11:48.637Z,14.03
2018-09-03T05:14:17.136Z,12.87
2018-09-03T05:16:45.556Z,12.77
2018-09-03T05:19:13.988Z,11.93
2018-09-03T05:21:42.540Z,12.83
2018-09-03T05:24:10.977Z,13.37
2018-09-03T05:26:39.421Z,13.80
2018-09-03T05:29:07.971Z,12.37
2018-09-03T05:31:36.366Z,12.97
2018-09-03T05:34:04.808Z,12.43
2018-09-03T05:36:33.227Z,12.90
2018-09-03T05:39:01.653Z,12.80
2018-09-03T05:41:30.105Z,13.73
2018-09-03T05:43:58.524Z,13.40
2018-09-03T05:46:27.042Z,13.77
2018-09-03T05:48:55.428Z,13.53
2018-09-03T05:51:23.944Z,14.07
2018-09-03T05:53:52.391Z,13.27
2018-09-03T05:56:20.808Z,13.17
2018-09-03T05:58:49.258Z,13.07
2018-09-03T06:01:17.726Z,12.70
2018-09-03T06:03:46.145Z,12.03
2018-09-03T06:06:14.638Z,12.30
2018-09-03T06:08:43.088Z,13.03
2018-09-03T06:11:11.709Z,13.67
2018-09-03T06:13:41.427Z,12.80
2018-09-03T06:16:09.909Z,12.07
2018-09-03T06:18:38.615Z,12.10
2018-09-03T06:21:07.521Z,12.50
2018-09-03T06:23:36.025Z,11.10
2018-09-03T06:26:04.501Z,10.73
2018-09-03T06:28:32.934Z,11.20
2018-09-03T06:31:01.413Z,12.57
2018-09-03T06:33:29.813Z,11.53
2018-09-03T06:35:58.432Z,11.37
2018-09-03T06:38:27.089Z,11.40
2018-09-03T06:40:55.723Z,11.80
2018-09-03T06:43:24.588Z,11.30
2018-09-03T06:45:53.240Z,12.00
2018-09-03T06:48:21.913Z,12.23
2018-09-03T06:50:50.359Z,11.83
2018-09-03T06:53:19.013Z,11.30
2018-09-03T06:55:47.405Z,11.20
2018-09-03T06:58:15.827Z,11.08
2018-09-03T07:00:44.251Z,12.07
2018-09-03T07:03:12.701Z,11.00
2018-09-03T07:05:41.222Z,11.43
2018-09-03T07:08:09.628Z,11.67
2018-09-03T07:10:38.044Z,10.80
2018-09-03T07:13:07.554Z,11.00
2018-09-03T07:15:36.860Z,10.95
2018-09-03T07:18:05.677Z,11.60
2018-09-03T07:20:34.406Z,12.03
2018-09-03T07:23:03.098Z,12.28
2018-09-03T07:25:31.553Z,11.73
2018-09-03T07:28:00.058Z,12.03
2018-09-03T07:30:28.587Z,11.75
2018-09-03T07:32:57.025Z,11.22
2018-09-03T07:35:25.441Z,11.93
2018-09-03T07:37:53.863Z,11.25
2018-09-03T07:40:22.325Z,11.37
2018-09-03T07:42:50.760Z,11.63
2018-09-03T07:45:19.198Z,12.28
2018-09-03T07:47:47.591Z,12.03
2018-09-03T07:50:16.012Z,12.88
2018-09-03T07:52:44.444Z,12.53
2018-09-03T07:55:12.820Z,12.00
2018-09-03T07:57:41.211Z,11.55
2018-09-03T08:00:09.999Z,12.45
2018-09-03T08:02:38.412Z,12.13
2018-09-03T08:05:07.221Z,12.77
2018-09-03T08:07:35.689Z,12.17
2018-09-03T08:10:04.148Z,11.43
2018-09-03T08:12:32.573Z,11.57
2018-09-03T08:15:00.967Z,11.78
2018-09-03T08:17:29.348Z,11.65
2018-09-03T08:19:57.760Z,10.70
2018-09-03T08:22:26.190Z,11.47
2018-09-03T08:24:54.581Z,11.30
2018-09-03T08:27:23.086Z,11.22
2018-09-03T08:29:51.530Z,11.85
2018-09-03T08:32:19.979Z,12.55
2018-09-03T08:34:48.412Z,11.78
2018-09-03T08:37:16.862Z,12.63
2018-09-03T08:39:45.991Z,12.40
2018-09-03T08:42:14.370Z,12.28
2018-09-03T08:44:42.797Z,12.00
2018-09-03T08:47:11.170Z,12.65
2018-09-03T08:49:39.559Z,13.32
2018-09-03T08:52:08.084Z,12.75
2018-09-03T08:54:36.557Z,12.43
2018-09-03T08:57:04.956Z,12.78
2018-09-03T08:59:33.364Z,13.90
2018-09-03T09:02:01.721Z,12.88
2018-09-03T09:04:30.207Z,14.75
2018-09-03T09:06:59.765Z,13.78
2018-09-03T09:09:28.165Z,14.28
2018-09-03T09:11:56.572Z,14.75
2018-09-03T09:14:24.963Z,15.08
2018-09-03T09:16:53.357Z,15.60
2018-09-03T09:19:21.798Z,16.97
2018-09-03T09:21:50.317Z,17.02
2018-09-03T09:24:18.703Z,17.48
2018-09-03T09:26:47.070Z,16.70
2018-09-03T09:29:15.525Z,18.67
2018-09-03T09:31:46.358Z,19.32
2018-09-03T09:34:14.791Z,19.05
2018-09-03T09:36:47.781Z,19.85
2018-09-03T09:39:16.276Z,20.10
2018-09-03T09:47:22.889Z,20.52
2018-09-03T09:49:51.626Z,20.75
2018-09-03T09:52:20.108Z,20.73
2018-09-03T09:54:48.693Z,20.43
2018-09-03T09:57:17.593Z,22.37
2018-09-03T09:59:46.091Z,23.20
2018-09-03T10:02:17.197Z,21.87
2018-09-03T10:04:45.717Z,24.75
2018-09-03T10:07:14.217Z,26.97
2018-09-03T10:09:42.735Z,27.45
2018-09-03T10:12:11.183Z,26.95
2018-09-03T10:14:42.850Z,28.07
2018-09-03T10:17:11.455Z,28.87
2018-09-03T10:19:41.721Z,28.07
2018-09-03T10:22:09.981Z,26.75
2018-09-03T10:24:38.595Z,30.37
2018-09-03T10:27:07.034Z,31.77
2018-09-03T10:32:20.252Z,31.67
2018-09-03T10:34:51.217Z,31.17
2018-09-03T10:37:21.988Z,30.43
2018-09-03T10:39:58.014Z,28.98
2018-09-03T10:42:53.415Z,30.90
2018-09-03T10:45:24.202Z,31.05
2018-09-03T10:47:55.178Z,31.40
2018-09-03T10:53:15.200Z,34.38
2018-09-03T10:55:45.498Z,32.53
2018-09-03T10:58:16.169Z,34.17
2018-09-03T11:00:46.729Z,33.42
2018-09-03T11:03:27.365Z,35.05
2018-09-03T11:06:08.071Z,34.30
2018-09-03T11:08:47.630Z,32.83
2018-09-03T11:11:16.121Z,35.38
2018-09-03T11:13:44.502Z,35.55
2018-09-03T11:16:14.037Z,37.60
2018-09-03T11:18:42.412Z,36.50
2018-09-03T11:21:10.784Z,36.23
2018-09-03T11:23:42.437Z,38.78
2018-09-03T11:26:10.953Z,37.03
2018-09-03T11:28:39.541Z,39.55
2018-09-03T11:31:07.923Z,37.23
2018-09-03T11:33:36.328Z,37.08
2018-09-03T11:36:13.099Z,38.05
2018-09-03T11:38:41.641Z,35.92
2018-09-03T11:41:10.080Z,35.88
2018-09-03T11:43:38.497Z,38.50
2018-09-03T11:46:08.356Z,39.85
2018-09-03T11:48:37.160Z,38.08
2018-09-03T11:51:10.447Z,37.08
2018-09-03T11:53:38.854Z,37.23
2018-09-03T11:56:07.270Z,38.10
2018-09-03T11:58:35.623Z,37.03
2018-09-03T12:01:04.164Z,36.88
2018-09-03T12:06:09.012Z,36.98
2018-09-03T12:08:46.323Z,36.08
2018-09-03T12:11:15.075Z,35.63
2018-09-03T12:13:44.540Z,36.30
2018-09-03T12:16:17.275Z,34.92
2018-09-03T12:18:47.125Z,34.43
2018-09-03T12:21:18.439Z,35.03
2018-09-03T12:23:47.871Z,35.78
2018-09-03T12:26:34.754Z,35.80
2018-09-03T12:29:07.190Z,34.60
2018-09-03T12:31:36.618Z,34.53
2018-09-03T12:34:09.856Z,33.98
2018-09-03T12:36:39.094Z,34.40
2018-09-03T12:39:23.762Z,35.68
2018-09-03T12:41:52.680Z,35.85
2018-09-03T12:44:36.110Z,35.30
2018-09-03T12:47:07.926Z,35.63
2018-09-03T12:49:39.206Z,35.68
2018-09-03T12:52:11.238Z,33.35
2018-09-03T12:54:51.354Z,35.95
2018-09-03T12:57:25.908Z,34.80
2018-09-03T13:00:18.190Z,34.83
2018-09-03T13:03:01.140Z,34.18
2018-09-03T13:06:07.113Z,34.78
2018-09-03T13:08:47.922Z,35.58
2018-09-03T13:11:45.765Z,35.48
2018-09-03T13:14:17.329Z,37.63
2018-09-03T13:16:52.220Z,36.30
2018-09-03T13:22:27.294Z,36.23
2018-09-03T13:25:02.577Z,36.63
2018-09-03T13:30:24.514Z,36.50
2018-09-03T13:35:43.034Z,37.83
2018-09-03T13:38:14.755Z,37.67
2018-09-03T13:40:45.340Z,36.77
2018-09-03T13:43:19.855Z,35.60
2018-09-03T13:45:52.433Z,37.23
2018-09-03T13:48:46.666Z,39.65
2018-09-03T13:51:28.723Z,37.67
2018-09-03T15:34:44.193Z,41.75
2018-09-03T15:37:13.312Z,42.40
2018-09-03T15:39:41.603Z,44.45
2018-09-03T15:42:09.876Z,40.33
2018-09-03T15:44:38.214Z,42.25
2018-09-03T15:47:06.530Z,43.17
2018-09-03T15:49:34.947Z,42.93
2018-09-03T15:52:03.264Z,43.80
2018-09-03T15:54:31.700Z,43.13
2018-09-03T15:56:59.980Z,42.25
2018-09-03T15:59:28.269Z,40.67
2018-09-03T16:01:56.613Z,41.37
2018-09-03T16:04:25.763Z,43.40
2018-09-03T16:06:54.022Z,42.53
2018-09-03T16:09:22.267Z,44.00
2018-09-03T16:11:50.561Z,43.65
2018-09-03T16:14:18.913Z,43.25
2018-09-03T16:16:47.184Z,43.80
2018-09-03T16:19:15.453Z,43.63
2018-09-03T16:21:43.765Z,45.33
2018-09-03T16:24:12.033Z,43.23
2018-09-03T16:26:40.285Z,41.95
2018-09-03T16:29:08.579Z,43.15
2018-09-03T16:31:36.838Z,44.18
2018-09-03T16:34:05.073Z,43.30
2018-09-03T16:36:33.356Z,41.88
2018-09-03T16:39:01.677Z,42.00
2018-09-03T16:41:30.408Z,42.93
2018-09-03T16:43:58.700Z,42.43
2018-09-03T16:46:27.109Z,41.55
2018-09-03T16:48:55.622Z,40.23
2018-09-03T16:51:25.344Z,39.00
2018-09-03T16:53:53.664Z,39.65
2018-09-03T16:56:32.261Z,41.10
2018-09-03T16:59:00.705Z,40.40
2018-09-03T17:01:29.188Z,41.37
2018-09-03T17:03:57.384Z,44.10
2018-09-03T17:06:25.681Z,43.50
2018-09-03T17:08:54.146Z,41.68
2018-09-03T17:11:22.405Z,42.08
2018-09-03T17:13:50.732Z,41.55
2018-09-03T17:16:19.043Z,43.58
2018-09-03T17:18:47.417Z,42.43
2018-09-03T17:21:15.701Z,43.70
2018-09-03T17:23:44.157Z,43.42
2018-09-03T17:26:12.522Z,44.60
2018-09-03T17:28:40.898Z,44.50
2018-09-03T17:31:09.164Z,43.92
2018-09-03T17:33:37.526Z,44.20
2018-09-03T17:36:06.065Z,44.00
2018-09-03T17:38:34.668Z,45.60
2018-09-03T17:41:03.039Z,45.67
2018-09-03T17:43:31.602Z,45.67
2018-09-03T17:45:59.920Z,46.65
2018-09-03T17:48:28.266Z,45.75
2018-09-03T17:50:56.732Z,44.55
2018-09-03T17:53:25.228Z,41.73
2018-09-03T17:55:54.200Z,45.75
2018-09-03T17:58:22.508Z,45.78
2018-09-03T18:00:50.865Z,47.08
2018-09-03T18:03:19.241Z,45.65
2018-09-03T18:05:47.793Z,45.85
2018-09-03T18:08:16.106Z,47.05
2018-09-03T18:10:46.617Z,48.00
2018-09-03T18:13:15.169Z,43.28
2018-09-03T18:15:43.553Z,42.30
2018-09-03T18:18:12.653Z,43.95
2018-09-03T18:20:40.984Z,43.87
2018-09-03T18:23:09.294Z,44.65
2018-09-03T18:25:39.233Z,45.28
2018-09-03T18:28:07.693Z,44.45
2018-09-03T18:30:36.016Z,43.90
2018-09-03T18:33:04.412Z,41.77
2018-09-03T18:35:32.942Z,43.80
2018-09-03T18:38:01.568Z,44.60
2018-09-03T18:40:29.813Z,45.75
2018-09-03T18:42:58.153Z,48.17
2018-09-03T18:45:26.393Z,50.20
2018-09-03T18:47:54.866Z,49.15
2018-09-03T18:50:23.145Z,49.53
2018-09-03T18:52:51.527Z,48.52
2018-09-03T18:55:19.862Z,48.08
2018-09-03T18:57:48.602Z,46.68
2018-09-03T19:00:16.952Z,46.35
2018-09-03T19:02:45.695Z,46.58
2018-09-03T19:05:13.958Z,47.53
2018-09-03T19:07:42.342Z,44.45
2018-09-03T19:10:10.644Z,44.58
2018-09-03T19:12:39.211Z,43.48
2018-09-03T19:15:07.891Z,44.42
2018-09-03T19:17:36.284Z,42.48
2018-09-03T19:20:04.638Z,42.43
2018-09-03T19:22:32.936Z,43.10
2018-09-03T19:25:01.357Z,43.55
2018-09-03T19:27:30.078Z,43.87
2018-09-03T19:29:58.529Z,40.80
2018-09-03T19:32:27.019Z,40.85
2018-09-03T19:34:55.347Z,42.08
2018-09-03T19:37:23.762Z,42.27
2018-09-03T19:39:52.059Z,43.02
2018-09-03T19:42:20.716Z,42.80
2018-09-03T19:44:49.029Z,41.50
2018-09-03T19:47:17.418Z,41.80
2018-09-03T19:49:45.663Z,40.55
2018-09-03T19:52:14.267Z,39.73
2018-09-03T19:54:42.721Z,39.47
2018-09-03T19:57:11.398Z,41.58
2018-09-03T19:59:41.078Z,40.38
2018-09-03T20:02:09.480Z,40.30
2018-09-03T20:04:37.801Z,41.37
2018-09-03T20:07:06.393Z,40.47
2018-09-03T20:09:35.198Z,41.10
2018-09-03T20:12:03.474Z,42.08
2018-09-03T20:14:31.805Z,42.13
2018-09-03T20:17:00.122Z,40.87
2018-09-03T20:19:28.466Z,42.40
2018-09-03T20:21:57.132Z,41.73
2018-09-03T20:24:25.500Z,39.93
2018-09-03T20:26:53.759Z,40.70
2018-09-03T20:29:22.066Z,40.90
2018-09-03T20:31:53.172Z,40.60
2018-09-03T20:34:21.456Z,40.63
2018-09-03T20:36:49.796Z,40.27
2018-09-03T20:39:18.424Z,41.07
2018-09-03T20:41:46.744Z,41.67
2018-09-03T20:44:16.289Z,40.47
2018-09-03T20:46:44.657Z,41.63
2018-09-03T20:49:13.397Z,43.10
2018-09-03T20:51:41.836Z,43.20
2018-09-03T20:54:10.094Z,44.47
2018-09-03T20:56:38.363Z,43.60
2018-09-03T20:59:06.633Z,42.80
2018-09-03T21:01:34.973Z,46.20
2018-09-03T21:04:03.215Z,43.33
2018-09-03T21:06:31.520Z,45.40
2018-09-03T21:08:59.801Z,44.07
2018-09-03T21:11:28.228Z,43.97
2018-09-03T21:13:56.484Z,44.47
2018-09-03T21:16:24.805Z,45.80
2018-09-03T21:18:53.171Z,46.53
2018-09-03T21:21:21.481Z,47.23
2018-09-03T21:23:49.715Z,43.20
2018-09-03T21:26:18.022Z,43.80
2018-09-03T21:28:46.290Z,44.60
2018-09-03T21:31:14.565Z,44.90
2018-09-03T21:33:42.858Z,45.57
2018-09-03T21:36:11.122Z,45.00
2018-09-03T21:38:39.415Z,43.93
2018-09-03T21:41:07.753Z,42.07
2018-09-03T21:43:36.022Z,44.50
2018-09-03T21:46:04.338Z,44.10
2018-09-03T21:48:32.609Z,42.50
2018-09-03T21:51:00.886Z,43.13
2018-09-03T21:53:29.237Z,42.20
2018-09-03T21:55:57.492Z,43.83
2018-09-03T21:58:25.789Z,43.83
2018-09-03T22:00:54.012Z,43.20
2018-09-03T22:03:22.357Z,42.73
2018-09-03T22:05:50.681Z,44.10
2018-09-03T22:08:18.942Z,43.57
2018-09-03T22:10:47.198Z,42.90
2018-09-03T22:13:15.554Z,42.50
2018-09-03T22:15:43.816Z,42.30
2018-09-03T22:18:12.486Z,44.50
2018-09-03T22:20:40.889Z,44.53
2018-09-03T22:23:09.409Z,42.70
2018-09-03T22:25:37.923Z,42.40
2018-09-03T22:28:06.425Z,42.55
2018-09-03T22:30:34.792Z,42.80
2018-09-03T22:33:03.093Z,42.57
2018-09-03T22:35:31.419Z,42.00
2018-09-03T22:37:59.821Z,42.20
2018-09-03T22:40:28.146Z,42.57
2018-09-03T22:42:56.512Z,41.80
2018-09-03T22:45:24.819Z,43.70
2018-09-03T22:47:53.174Z,44.03
2018-09-03T22:50:21.511Z,44.23
2018-09-03T22:52:49.831Z,42.10
2018-09-03T22:55:18.138Z,41.93
2018-09-03T22:57:46.471Z,42.30
2018-09-03T23:00:14.798Z,42.57
2018-09-03T23:02:43.693Z,41.23
2018-09-03T23:05:12.643Z,43.03
2018-09-03T23:07:41.012Z,42.17
2018-09-03T23:10:09.985Z,43.33
2018-09-03T23:12:38.327Z,43.40
2018-09-03T23:15:07.400Z,44.13
2018-09-03T23:17:35.744Z,42.13
2018-09-03T23:20:04.095Z,41.97
2018-09-03T23:22:32.426Z,42.30
2018-09-03T23:25:00.743Z,41.10
2018-09-03T23:27:29.090Z,42.20
2018-09-03T23:29:57.780Z,43.80
2018-09-03T23:32:26.126Z,42.97
2018-09-03T23:34:54.476Z,45.33
2018-09-03T23:37:22.827Z,45.07
2018-09-03T23:39:51.231Z,42.40
2018-09-03T23:42:19.872Z,43.57
2018-09-03T23:44:48.226Z,44.20
2018-09-03T23:47:16.652Z,44.07
2018-09-03T23:49:45.109Z,42.13
2018-09-03T23:52:13.405Z,41.23
2018-09-03T23:54:41.818Z,42.43
2018-09-03T23:57:10.327Z,43.10
2018-09-03T23:59:38.708Z,44.50
